Terminal Aerodrome Forecast
Issued by NWS

Home | Current Version | Previous Version | Text Only | Print | Product List | Glossary On
Versions: 1 2 3 4 5 6 7 8 9 10 11 12 13 14
000
FTUS42 KTBW 292342
TAFLAL
TAF
KLAL 292342Z 3000/3024 11012KT P6SM SCT070 BKN250
     FM300200 10008KT P6SM FEW040 BKN250
     FM300900 12007KT P6SM SCT015 BKN100
     FM301300 13013G21KT P6SM BKN035 OVC100
     FM302000 12014G22KT P6SM SCT070 SCT250
      AMD NOT SKED 3002/3011=

USA.gov is the U.S. government's official web portal to all federal, state and local government web resources and services.